CheckWX is a tool to help pilots better visualize weather data.  It is not intended as a substitute for an official pre-flight weather briefing.

14:35:15 UTC

KCNY METAR
Canyonlands Field Airport
Moab, Utah, USA
Current

42 mins ago

KCNY 251353Z AUTO 00000KT 10SM CLR 20/M02 A3004 RMK AO2 SLP107 T02001022
Observed
Aug-25 @ 13:53 UTC
Visibility
10 SM
Flight Rules
VFR
Cloud Levels
  • Clear skies
Temperature
20°C / 68°F
Dewpoint
-2°C / 28°F
Humidity
23%
Altimeter
30.04" Hg
Pressure
1017.32 hPa
Previous

2 hours ago

KCNY 251253Z AUTO 26005KT 10SM CLR 18/M01 A3002 RMK AO2 SLP101 T01781011
Observed
Aug-25 @ 12:53 UTC
Wind
  • 260° at 5 KTS
Visibility
10 SM
Flight Rules
VFR
Cloud Levels
  • Clear skies
Temperature
18°C / 64°F
Dewpoint
-1°C / 30°F
Humidity
28%
Altimeter
30.02" Hg
Pressure
1016.62 hPa
Previous

3 hours ago

KCNY 251153Z AUTO 04003KT 10SM CLR 18/M02 A3001 RMK AO2 SLP094 T01831017 10267 20172 51007
Observed
Aug-25 @ 11:53 UTC
Wind
  • 040° at 3 KTS
Visibility
10 SM
Flight Rules
VFR
Cloud Levels
  • Clear skies
Temperature
18°C / 64°F
Dewpoint
-2°C / 28°F
Humidity
26%
Altimeter
30.01" Hg
Pressure
1016.22 hPa